CSN6650 ZUCK-ZHCC
Flight info
| Callsign | CSN6650 |
|---|---|
| Flight time | 1h 26m |
| Altitude | 29100 |
| Route | OVNUL W677 IGIRO W4 TAMIX B208 NOPIN |
| Aircraft | A320/M-SDE3FGHIRWY/LB1 |
Departure
| Time | 2026-04-20 14:29 |
|---|---|
| Airport | Chongqing Jiangbei International Airport (ZUCK) |
Arrival
| Time | 2026-04-20 15:55 |
|---|---|
| Airport | Zhengzhou Xinzheng International Airport (ZHCC) |
| Time | Latitude | Longitude | Altitude | Speed | Heading |
|---|---|---|---|---|---|
| 2026-04-20 13:48 | 29.73246 | 106.66099 | 1335 ft | 0 kts | 343° |
| 2026-04-20 14:09 | 29.73241 | 106.66101 | 1335 ft | 4 kts | 343° |
| 2026-04-20 14:10 | 29.73215 | 106.66109 | 1336 ft | 4 kts | 345° |
| 2026-04-20 14:10 | 29.73189 | 106.66117 | 1337 ft | 4 kts | 342° |
| 2026-04-20 14:10 | 29.73164 | 106.66128 | 1335 ft | 4 kts | 347° |
| 2026-04-20 14:10 | 29.73139 | 106.66127 | 1336 ft | 4 kts | 36° |
| 2026-04-20 14:11 | 29.73129 | 106.66116 | 1338 ft | 0 kts | 60° |
| 2026-04-20 14:14 | 29.73130 | 106.66119 | 1337 ft | 2 kts | 60° |
| 2026-04-20 14:15 | 29.73147 | 106.66162 | 1325 ft | 7 kts | 72° |
| 2026-04-20 14:15 | 29.73159 | 106.66207 | 1332 ft | 10 kts | 75° |
| 2026-04-20 14:15 | 29.73179 | 106.66291 | 1332 ft | 7 kts | 75° |
| 2026-04-20 14:15 | 29.73167 | 106.66339 | 1329 ft | 8 kts | 164° |
| 2026-04-20 14:16 | 29.73131 | 106.66391 | 1328 ft | 6 kts | 105° |
| 2026-04-20 14:16 | 29.73112 | 106.66412 | 1328 ft | 5 kts | 172° |
| 2026-04-20 14:16 | 29.73064 | 106.66401 | 1328 ft | 8 kts | 195° |
| 2026-04-20 14:16 | 29.73008 | 106.66381 | 1328 ft | 9 kts | 197° |
| 2026-04-20 14:17 | 29.72939 | 106.66356 | 1329 ft | 13 kts | 197° |
| 2026-04-20 14:17 | 29.72858 | 106.66338 | 1329 ft | 10 kts | 161° |
| 2026-04-20 14:17 | 29.72814 | 106.66405 | 1329 ft | 11 kts | 153° |
| 2026-04-20 14:17 | 29.72732 | 106.66392 | 1329 ft | 13 kts | 195° |
| 2026-04-20 14:18 | 29.72640 | 106.66360 | 1330 ft | 15 kts | 197° |
| 2026-04-20 14:18 | 29.72542 | 106.66325 | 1331 ft | 12 kts | 197° |
| 2026-04-20 14:18 | 29.72465 | 106.66297 | 1331 ft | 10 kts | 198° |
| 2026-04-20 14:18 | 29.72392 | 106.66272 | 1331 ft | 12 kts | 196° |
| 2026-04-20 14:19 | 29.72307 | 106.66243 | 1332 ft | 14 kts | 197° |
| 2026-04-20 14:19 | 29.72253 | 106.66223 | 1333 ft | 6 kts | 197° |
| 2026-04-20 14:19 | 29.72207 | 106.66206 | 1333 ft | 9 kts | 198° |
| 2026-04-20 14:19 | 29.72123 | 106.66177 | 1334 ft | 16 kts | 197° |
| 2026-04-20 14:20 | 29.72013 | 106.66137 | 1334 ft | 17 kts | 198° |
| 2026-04-20 14:20 | 29.71962 | 106.66111 | 1337 ft | 3 kts | 248° |
| 2026-04-20 14:20 | 29.71974 | 106.66061 | 1335 ft | 9 kts | 284° |
| 2026-04-20 14:20 | 29.71945 | 106.66009 | 1336 ft | 9 kts | 205° |
| 2026-04-20 14:21 | 29.71927 | 106.65944 | 1337 ft | 11 kts | 283° |
| 2026-04-20 14:21 | 29.71947 | 106.65860 | 1338 ft | 12 kts | 285° |
| 2026-04-20 14:21 | 29.71969 | 106.65768 | 1343 ft | 12 kts | 285° |
| 2026-04-20 14:21 | 29.71995 | 106.65672 | 1344 ft | 13 kts | 287° |
| 2026-04-20 14:22 | 29.72021 | 106.65571 | 1344 ft | 15 kts | 287° |
| 2026-04-20 14:22 | 29.72057 | 106.65434 | 1348 ft | 19 kts | 286° |
| 2026-04-20 14:22 | 29.72095 | 106.65286 | 1352 ft | 19 kts | 286° |
| 2026-04-20 14:22 | 29.72133 | 106.65137 | 1353 ft | 20 kts | 287° |
| 2026-04-20 14:23 | 29.72174 | 106.64981 | 1354 ft | 21 kts | 287° |
| 2026-04-20 14:23 | 29.72151 | 106.64941 | 1357 ft | 7 kts | 195° |
| 2026-04-20 14:23 | 29.72099 | 106.64921 | 1356 ft | 10 kts | 198° |
| 2026-04-20 14:23 | 29.72021 | 106.64894 | 1356 ft | 14 kts | 196° |
| 2026-04-20 14:24 | 29.71919 | 106.64859 | 1355 ft | 16 kts | 197° |
| 2026-04-20 14:24 | 29.71804 | 106.64818 | 1355 ft | 18 kts | 198° |
| 2026-04-20 14:24 | 29.71675 | 106.64775 | 1357 ft | 20 kts | 196° |
| 2026-04-20 14:24 | 29.71536 | 106.64727 | 1358 ft | 22 kts | 196° |
| 2026-04-20 14:25 | 29.71386 | 106.64676 | 1358 ft | 23 kts | 197° |
| 2026-04-20 14:25 | 29.71237 | 106.64625 | 1359 ft | 23 kts | 196° |
| 2026-04-20 14:25 | 29.71082 | 106.64572 | 1359 ft | 24 kts | 197° |
| 2026-04-20 14:25 | 29.70932 | 106.64520 | 1358 ft | 22 kts | 197° |
| 2026-04-20 14:26 | 29.70781 | 106.64466 | 1358 ft | 24 kts | 198° |
| 2026-04-20 14:26 | 29.70618 | 106.64412 | 1358 ft | 25 kts | 196° |
| 2026-04-20 14:26 | 29.70498 | 106.64370 | 1359 ft | 16 kts | 197° |
| 2026-04-20 14:26 | 29.70423 | 106.64337 | 1358 ft | 11 kts | 224° |
| 2026-04-20 14:27 | 29.70426 | 106.64273 | 1358 ft | 8 kts | 284° |
| 2026-04-20 14:27 | 29.70441 | 106.64206 | 1358 ft | 6 kts | 285° |
| 2026-04-20 14:27 | 29.70454 | 106.64163 | 1359 ft | 6 kts | 289° |
| 2026-04-20 14:27 | 29.70468 | 106.64118 | 1361 ft | 6 kts | 289° |
| 2026-04-20 14:28 | 29.70492 | 106.64077 | 1360 ft | 7 kts | 347° |
| 2026-04-20 14:28 | 29.70533 | 106.64085 | 1360 ft | 7 kts | 15° |
| 2026-04-20 14:28 | 29.70664 | 106.64129 | 1359 ft | 44 kts | 17° |
| 2026-04-20 14:28 | 29.71194 | 106.64312 | 1358 ft | 110 kts | 17° |
| 2026-04-20 14:29 | 29.72080 | 106.64619 | 1355 ft | 154 kts | 17° |
| 2026-04-20 14:29 | 29.73196 | 106.64999 | 1688 ft | 167 kts | 16° |
| 2026-04-20 14:29 | 29.74301 | 106.65376 | 2311 ft | 166 kts | 17° |
| 2026-04-20 14:29 | 29.75415 | 106.65758 | 2898 ft | 167 kts | 17° |
| 2026-04-20 14:30 | 29.76527 | 106.66141 | 3451 ft | 167 kts | 18° |
| 2026-04-20 14:30 | 29.77654 | 106.66528 | 3912 ft | 171 kts | 19° |
| 2026-04-20 14:30 | 29.78805 | 106.66936 | 4378 ft | 175 kts | 20° |
| 2026-04-20 14:30 | 29.80014 | 106.67364 | 4662 ft | 192 kts | 21° |
| 2026-04-20 14:31 | 29.81360 | 106.67845 | 4930 ft | 212 kts | 20° |
| 2026-04-20 14:31 | 29.82837 | 106.68361 | 5192 ft | 231 kts | 19° |
| 2026-04-20 14:31 | 29.84461 | 106.68923 | 5480 ft | 256 kts | 19° |
| 2026-04-20 14:31 | 29.86241 | 106.69535 | 5900 ft | 277 kts | 18° |
| 2026-04-20 14:32 | 29.88143 | 106.70188 | 6479 ft | 291 kts | 18° |
| 2026-04-20 14:32 | 29.90101 | 106.70862 | 7222 ft | 296 kts | 18° |
| 2026-04-20 14:32 | 29.92056 | 106.71534 | 8056 ft | 298 kts | 17° |
| 2026-04-20 14:32 | 29.94078 | 106.72228 | 8944 ft | 300 kts | 17° |
| 2026-04-20 14:33 | 29.96085 | 106.72919 | 9807 ft | 302 kts | 17° |
| 2026-04-20 14:33 | 29.98119 | 106.73622 | 10389 ft | 313 kts | 16° |
| 2026-04-20 14:33 | 30.00258 | 106.74362 | 10599 ft | 336 kts | 16° |
| 2026-04-20 14:33 | 30.02606 | 106.75177 | 10788 ft | 359 kts | 16° |
| 2026-04-20 14:34 | 30.05033 | 106.76020 | 11292 ft | 368 kts | 16° |
| 2026-04-20 14:34 | 30.07471 | 106.76867 | 11943 ft | 374 kts | 15° |
| 2026-04-20 14:34 | 30.10013 | 106.77751 | 12617 ft | 379 kts | 15° |
| 2026-04-20 14:34 | 30.12516 | 106.78622 | 13291 ft | 383 kts | 15° |
| 2026-04-20 14:35 | 30.15079 | 106.79514 | 13932 ft | 387 kts | 14° |
| 2026-04-20 14:35 | 30.17675 | 106.80419 | 14527 ft | 391 kts | 14° |
| 2026-04-20 14:35 | 30.20271 | 106.81419 | 15121 ft | 396 kts | 21° |
| 2026-04-20 14:35 | 30.22764 | 106.82830 | 15697 ft | 401 kts | 25° |
| 2026-04-20 14:36 | 30.25266 | 106.84311 | 16265 ft | 405 kts | 25° |
| 2026-04-20 14:36 | 30.27782 | 106.85802 | 16843 ft | 408 kts | 25° |
| 2026-04-20 14:36 | 30.30314 | 106.87305 | 17429 ft | 412 kts | 24° |
| 2026-04-20 14:36 | 30.32877 | 106.88827 | 18000 ft | 416 kts | 24° |
| 2026-04-20 14:37 | 30.35464 | 106.90363 | 18503 ft | 420 kts | 24° |
| 2026-04-20 14:37 | 30.38072 | 106.91913 | 19002 ft | 423 kts | 24° |
| 2026-04-20 14:37 | 30.40696 | 106.93471 | 19520 ft | 425 kts | 24° |
| 2026-04-20 14:37 | 30.43342 | 106.95042 | 20072 ft | 428 kts | 24° |
| 2026-04-20 14:38 | 30.46003 | 106.96624 | 20604 ft | 431 kts | 24° |
| 2026-04-20 14:38 | 30.48677 | 106.98214 | 21118 ft | 434 kts | 24° |
| 2026-04-20 14:38 | 30.51375 | 106.99820 | 21631 ft | 437 kts | 24° |
| 2026-04-20 14:38 | 30.54088 | 107.01432 | 22158 ft | 440 kts | 24° |
| 2026-04-20 14:39 | 30.56794 | 107.03107 | 22663 ft | 444 kts | 29° |
| 2026-04-20 14:39 | 30.59355 | 107.05165 | 23187 ft | 448 kts | 33° |
| 2026-04-20 14:39 | 30.61891 | 107.07287 | 23651 ft | 451 kts | 33° |
| 2026-04-20 14:39 | 30.64412 | 107.09395 | 24069 ft | 454 kts | 33° |
| 2026-04-20 14:40 | 30.67016 | 107.11567 | 24512 ft | 456 kts | 33° |
| 2026-04-20 14:40 | 30.69604 | 107.13723 | 24956 ft | 459 kts | 33° |
| 2026-04-20 14:40 | 30.72197 | 107.15884 | 25393 ft | 461 kts | 33° |
| 2026-04-20 14:40 | 30.74811 | 107.18067 | 25841 ft | 464 kts | 33° |
| 2026-04-20 14:41 | 30.77409 | 107.20239 | 26265 ft | 467 kts | 33° |
| 2026-04-20 14:41 | 30.80048 | 107.22450 | 26700 ft | 469 kts | 33° |
| 2026-04-20 14:41 | 30.82707 | 107.24678 | 27130 ft | 472 kts | 33° |
| 2026-04-20 14:41 | 30.85380 | 107.26917 | 27544 ft | 475 kts | 33° |
| 2026-04-20 14:42 | 30.88072 | 107.29172 | 27988 ft | 476 kts | 33° |
| 2026-04-20 14:42 | 30.90751 | 107.31419 | 28584 ft | 474 kts | 33° |
| 2026-04-20 14:42 | 30.93423 | 107.33662 | 28958 ft | 474 kts | 33° |
| 2026-04-20 14:42 | 30.96091 | 107.35906 | 29048 ft | 474 kts | 33° |
| 2026-04-20 14:43 | 31.01457 | 107.40428 | 29057 ft | 475 kts | 33° |
| 2026-04-20 14:43 | 31.06996 | 107.44607 | 29057 ft | 473 kts | 26° |
| 2026-04-20 14:44 | 31.12759 | 107.48321 | 29060 ft | 473 kts | 26° |
| 2026-04-20 14:44 | 31.18508 | 107.52036 | 29070 ft | 473 kts | 26° |
| 2026-04-20 14:45 | 31.24262 | 107.55764 | 29067 ft | 473 kts | 26° |
| 2026-04-20 14:45 | 31.29975 | 107.59470 | 29076 ft | 473 kts | 26° |
| 2026-04-20 14:46 | 31.35731 | 107.63204 | 29079 ft | 473 kts | 26° |
| 2026-04-20 14:46 | 31.41483 | 107.66943 | 29084 ft | 473 kts | 26° |
| 2026-04-20 14:47 | 31.47234 | 107.70684 | 29091 ft | 473 kts | 26° |
| 2026-04-20 14:48 | 31.55868 | 107.76317 | 29100 ft | 473 kts | 26° |
| 2026-04-20 14:48 | 31.61616 | 107.80078 | 29113 ft | 474 kts | 27° |
| 2026-04-20 14:49 | 31.66923 | 107.84729 | 29120 ft | 478 kts | 37° |
| 2026-04-20 14:49 | 31.72049 | 107.89707 | 29133 ft | 478 kts | 36° |
| 2026-04-20 14:50 | 31.77180 | 107.94672 | 29142 ft | 478 kts | 36° |
| 2026-04-20 14:50 | 31.82318 | 107.99651 | 29153 ft | 478 kts | 36° |
| 2026-04-20 14:51 | 31.87446 | 108.04635 | 29167 ft | 478 kts | 36° |
| 2026-04-20 14:51 | 31.92571 | 108.09630 | 29180 ft | 478 kts | 36° |
| 2026-04-20 14:52 | 31.97684 | 108.14617 | 29188 ft | 478 kts | 36° |
| 2026-04-20 14:52 | 32.02801 | 108.19607 | 29201 ft | 478 kts | 36° |
| 2026-04-20 14:53 | 32.07726 | 108.24890 | 29207 ft | 482 kts | 47° |
| 2026-04-20 14:53 | 32.11204 | 108.31664 | 29210 ft | 488 kts | 66° |
| 2026-04-20 14:54 | 32.13433 | 108.39245 | 29192 ft | 490 kts | 70° |
| 2026-04-20 14:54 | 32.15628 | 108.46862 | 29205 ft | 490 kts | 70° |
| 2026-04-20 14:55 | 32.17807 | 108.54487 | 29204 ft | 491 kts | 70° |
| 2026-04-20 14:55 | 32.19975 | 108.62063 | 29211 ft | 490 kts | 68° |
| 2026-04-20 14:56 | 32.23313 | 108.69009 | 29214 ft | 485 kts | 48° |
| 2026-04-20 14:56 | 32.28226 | 108.74323 | 29216 ft | 477 kts | 30° |
| 2026-04-20 14:57 | 32.33880 | 108.78386 | 29228 ft | 476 kts | 27° |
| 2026-04-20 14:57 | 32.39554 | 108.82450 | 29242 ft | 477 kts | 28° |
| 2026-04-20 14:58 | 32.45220 | 108.86524 | 29240 ft | 476 kts | 28° |
| 2026-04-20 14:58 | 32.50881 | 108.90605 | 29254 ft | 477 kts | 28° |
| 2026-04-20 14:59 | 32.55593 | 108.93991 | 29255 ft | 477 kts | 27° |
| 2026-04-20 14:59 | 32.62227 | 108.98762 | 29257 ft | 477 kts | 27° |
| 2026-04-20 15:00 | 32.66940 | 109.02164 | 29259 ft | 477 kts | 28° |
| 2026-04-20 15:00 | 32.72603 | 109.06270 | 29257 ft | 476 kts | 28° |
| 2026-04-20 15:01 | 32.78253 | 109.10364 | 29258 ft | 476 kts | 28° |
| 2026-04-20 15:01 | 32.83917 | 109.14467 | 29261 ft | 476 kts | 28° |
| 2026-04-20 15:02 | 32.89570 | 109.18568 | 29259 ft | 476 kts | 28° |
| 2026-04-20 15:02 | 32.95223 | 109.22684 | 29261 ft | 476 kts | 28° |
| 2026-04-20 15:03 | 33.00877 | 109.26803 | 29263 ft | 476 kts | 28° |
| 2026-04-20 15:03 | 33.06486 | 109.30905 | 29267 ft | 476 kts | 28° |
| 2026-04-20 15:04 | 33.12137 | 109.35033 | 29256 ft | 476 kts | 28° |
| 2026-04-20 15:04 | 33.17782 | 109.39158 | 29258 ft | 476 kts | 28° |
| 2026-04-20 15:05 | 33.23431 | 109.43294 | 29263 ft | 476 kts | 28° |
| 2026-04-20 15:05 | 33.29069 | 109.47440 | 29269 ft | 476 kts | 28° |
| 2026-04-20 15:06 | 33.34699 | 109.51624 | 29270 ft | 477 kts | 32° |
| 2026-04-20 15:06 | 33.37256 | 109.54172 | 29272 ft | 482 kts | 43° |
| 2026-04-20 15:06 | 33.39402 | 109.57273 | 29272 ft | 486 kts | 54° |
| 2026-04-20 15:06 | 33.41047 | 109.60816 | 29268 ft | 489 kts | 65° |
| 2026-04-20 15:07 | 33.42130 | 109.64669 | 29267 ft | 491 kts | 76° |
| 2026-04-20 15:07 | 33.43055 | 109.72765 | 29266 ft | 492 kts | 83° |
| 2026-04-20 15:08 | 33.43834 | 109.80911 | 29258 ft | 492 kts | 83° |
| 2026-04-20 15:08 | 33.44614 | 109.89055 | 29268 ft | 493 kts | 83° |
| 2026-04-20 15:09 | 33.45406 | 109.97203 | 29269 ft | 493 kts | 83° |
| 2026-04-20 15:09 | 33.46186 | 110.05366 | 29274 ft | 493 kts | 83° |
| 2026-04-20 15:10 | 33.46950 | 110.13537 | 29283 ft | 493 kts | 83° |
| 2026-04-20 15:10 | 33.47718 | 110.21706 | 29288 ft | 494 kts | 83° |
| 2026-04-20 15:11 | 33.48476 | 110.29882 | 29292 ft | 494 kts | 84° |
| 2026-04-20 15:11 | 33.49234 | 110.38056 | 29292 ft | 494 kts | 81° |
| 2026-04-20 15:11 | 33.50024 | 110.42051 | 29292 ft | 492 kts | 69° |
| 2026-04-20 15:12 | 33.51405 | 110.45784 | 29295 ft | 490 kts | 58° |
| 2026-04-20 15:12 | 33.53313 | 110.49149 | 29291 ft | 486 kts | 47° |
| 2026-04-20 15:12 | 33.55661 | 110.52021 | 29292 ft | 481 kts | 36° |
| 2026-04-20 15:13 | 33.61311 | 110.56113 | 29288 ft | 473 kts | 21° |
| 2026-04-20 15:13 | 33.67234 | 110.59495 | 29290 ft | 474 kts | 21° |
| 2026-04-20 15:14 | 33.73194 | 110.62921 | 29296 ft | 475 kts | 21° |
| 2026-04-20 15:14 | 33.79157 | 110.66351 | 29300 ft | 476 kts | 21° |
| 2026-04-20 15:15 | 33.85147 | 110.69790 | 29298 ft | 477 kts | 21° |
| 2026-04-20 15:15 | 33.91137 | 110.73242 | 29291 ft | 478 kts | 21° |
| 2026-04-20 15:16 | 33.97140 | 110.76705 | 29296 ft | 478 kts | 21° |
| 2026-04-20 15:16 | 34.03142 | 110.80168 | 29297 ft | 479 kts | 21° |
| 2026-04-20 15:17 | 34.09158 | 110.83646 | 29300 ft | 479 kts | 21° |
| 2026-04-20 15:17 | 34.15181 | 110.87131 | 29292 ft | 480 kts | 21° |
| 2026-04-20 15:18 | 34.21199 | 110.90629 | 29287 ft | 480 kts | 21° |
| 2026-04-20 15:18 | 34.27178 | 110.94110 | 29291 ft | 480 kts | 21° |
| 2026-04-20 15:19 | 34.33204 | 110.97618 | 29292 ft | 480 kts | 21° |
| 2026-04-20 15:19 | 34.39199 | 111.01233 | 29287 ft | 483 kts | 27° |
| 2026-04-20 15:19 | 34.41936 | 111.03623 | 29281 ft | 488 kts | 38° |
| 2026-04-20 15:20 | 34.44340 | 111.06541 | 29278 ft | 492 kts | 47° |
| 2026-04-20 15:20 | 34.48149 | 111.13474 | 29273 ft | 495 kts | 56° |
| 2026-04-20 15:21 | 34.51764 | 111.20590 | 29269 ft | 496 kts | 56° |
| 2026-04-20 15:21 | 34.55381 | 111.27718 | 29263 ft | 496 kts | 56° |
| 2026-04-20 15:22 | 34.58991 | 111.34869 | 29263 ft | 497 kts | 56° |
| 2026-04-20 15:22 | 34.62598 | 111.42030 | 29257 ft | 498 kts | 56° |
| 2026-04-20 15:23 | 34.66182 | 111.49162 | 29274 ft | 498 kts | 56° |
| 2026-04-20 15:23 | 34.69796 | 111.56369 | 29264 ft | 498 kts | 56° |
| 2026-04-20 15:24 | 34.73395 | 111.63559 | 29263 ft | 498 kts | 56° |
| 2026-04-20 15:24 | 34.76998 | 111.70765 | 29274 ft | 499 kts | 56° |
| 2026-04-20 15:25 | 34.80613 | 111.78001 | 29276 ft | 499 kts | 56° |
| 2026-04-20 15:25 | 34.84214 | 111.85227 | 29270 ft | 500 kts | 56° |
| 2026-04-20 15:26 | 34.87815 | 111.92476 | 29273 ft | 500 kts | 56° |
| 2026-04-20 15:26 | 34.91445 | 111.99719 | 29272 ft | 501 kts | 55° |
| 2026-04-20 15:26 | 34.93265 | 112.03327 | 29151 ft | 499 kts | 55° |
| 2026-04-20 15:27 | 34.95084 | 112.06935 | 28404 ft | 500 kts | 56° |
| 2026-04-20 15:27 | 34.96898 | 112.10544 | 27808 ft | 497 kts | 56° |
| 2026-04-20 15:27 | 34.98662 | 112.14067 | 27348 ft | 492 kts | 56° |
| 2026-04-20 15:27 | 35.00434 | 112.17608 | 26852 ft | 487 kts | 56° |
| 2026-04-20 15:28 | 35.02213 | 112.21166 | 26357 ft | 482 kts | 56° |
| 2026-04-20 15:28 | 35.03948 | 112.24637 | 25869 ft | 477 kts | 56° |
| 2026-04-20 15:28 | 35.05644 | 112.28032 | 25398 ft | 473 kts | 56° |
| 2026-04-20 15:28 | 35.07349 | 112.31450 | 24960 ft | 468 kts | 56° |
| 2026-04-20 15:29 | 35.09042 | 112.34848 | 24764 ft | 468 kts | 56° |
| 2026-04-20 15:29 | 35.10733 | 112.38241 | 24778 ft | 468 kts | 56° |
| 2026-04-20 15:29 | 35.12416 | 112.41627 | 24787 ft | 468 kts | 56° |
| 2026-04-20 15:29 | 35.14107 | 112.45029 | 24788 ft | 468 kts | 56° |
| 2026-04-20 15:30 | 35.15801 | 112.48437 | 24782 ft | 468 kts | 56° |
| 2026-04-20 15:30 | 35.17493 | 112.51846 | 24788 ft | 468 kts | 56° |
| 2026-04-20 15:30 | 35.19175 | 112.55247 | 24789 ft | 469 kts | 56° |
| 2026-04-20 15:30 | 35.20862 | 112.58669 | 24790 ft | 469 kts | 56° |
| 2026-04-20 15:31 | 35.22554 | 112.62074 | 24791 ft | 469 kts | 56° |
| 2026-04-20 15:31 | 35.24258 | 112.65468 | 24791 ft | 469 kts | 56° |
| 2026-04-20 15:31 | 35.25977 | 112.68876 | 24792 ft | 469 kts | 56° |
| 2026-04-20 15:31 | 35.27690 | 112.72268 | 24794 ft | 469 kts | 56° |
| 2026-04-20 15:32 | 35.29393 | 112.75646 | 24545 ft | 466 kts | 56° |
| 2026-04-20 15:32 | 35.31090 | 112.79023 | 24063 ft | 462 kts | 56° |
| 2026-04-20 15:32 | 35.32759 | 112.82359 | 23566 ft | 458 kts | 56° |
| 2026-04-20 15:32 | 35.34393 | 112.85635 | 23028 ft | 454 kts | 56° |
| 2026-04-20 15:33 | 35.36030 | 112.88923 | 22506 ft | 451 kts | 56° |
| 2026-04-20 15:33 | 35.37674 | 112.92224 | 21998 ft | 447 kts | 56° |
| 2026-04-20 15:33 | 35.39260 | 112.95417 | 21530 ft | 443 kts | 56° |
| 2026-04-20 15:33 | 35.40857 | 112.98633 | 21050 ft | 439 kts | 56° |
| 2026-04-20 15:34 | 35.42439 | 113.01820 | 20570 ft | 436 kts | 56° |
| 2026-04-20 15:34 | 35.44015 | 113.04991 | 20149 ft | 432 kts | 56° |
| 2026-04-20 15:34 | 35.45577 | 113.08131 | 19896 ft | 430 kts | 56° |
| 2026-04-20 15:34 | 35.47134 | 113.11266 | 19891 ft | 430 kts | 56° |
| 2026-04-20 15:35 | 35.48689 | 113.14406 | 19896 ft | 431 kts | 56° |
| 2026-04-20 15:35 | 35.50241 | 113.17542 | 19897 ft | 431 kts | 56° |
| 2026-04-20 15:35 | 35.51795 | 113.20686 | 19878 ft | 429 kts | 56° |
| 2026-04-20 15:35 | 35.53336 | 113.23819 | 19435 ft | 426 kts | 58° |
| 2026-04-20 15:36 | 35.54513 | 113.27138 | 18986 ft | 426 kts | 72° |
| 2026-04-20 15:36 | 35.55026 | 113.30709 | 18557 ft | 424 kts | 86° |
| 2026-04-20 15:36 | 35.54858 | 113.34290 | 18067 ft | 420 kts | 101° |
| 2026-04-20 15:36 | 35.54032 | 113.37715 | 17586 ft | 414 kts | 115° |
| 2026-04-20 15:37 | 35.52630 | 113.40757 | 17111 ft | 407 kts | 128° |
| 2026-04-20 15:37 | 35.50765 | 113.43267 | 16639 ft | 400 kts | 141° |
| 2026-04-20 15:37 | 35.48483 | 113.45224 | 16145 ft | 392 kts | 154° |
| 2026-04-20 15:37 | 35.46001 | 113.46518 | 15670 ft | 385 kts | 163° |
| 2026-04-20 15:38 | 35.43524 | 113.47610 | 15179 ft | 382 kts | 162° |
| 2026-04-20 15:38 | 35.41028 | 113.48720 | 14704 ft | 379 kts | 162° |
| 2026-04-20 15:38 | 35.38563 | 113.49826 | 14244 ft | 376 kts | 161° |
| 2026-04-20 15:38 | 35.36120 | 113.50926 | 13748 ft | 373 kts | 161° |
| 2026-04-20 15:39 | 35.33691 | 113.52019 | 13252 ft | 369 kts | 161° |
| 2026-04-20 15:39 | 35.31292 | 113.53098 | 12767 ft | 365 kts | 161° |
| 2026-04-20 15:39 | 35.28926 | 113.54160 | 12299 ft | 361 kts | 160° |
| 2026-04-20 15:39 | 35.26579 | 113.55213 | 11997 ft | 357 kts | 160° |
| 2026-04-20 15:40 | 35.24244 | 113.56258 | 11968 ft | 357 kts | 160° |
| 2026-04-20 15:40 | 35.21909 | 113.57303 | 11980 ft | 358 kts | 160° |
| 2026-04-20 15:40 | 35.19566 | 113.58352 | 11815 ft | 357 kts | 160° |
| 2026-04-20 15:40 | 35.17241 | 113.59391 | 11564 ft | 353 kts | 160° |
| 2026-04-20 15:41 | 35.14963 | 113.60408 | 11316 ft | 343 kts | 160° |
| 2026-04-20 15:41 | 35.12772 | 113.61385 | 11076 ft | 335 kts | 160° |
| 2026-04-20 15:41 | 35.10609 | 113.62348 | 10838 ft | 328 kts | 160° |
| 2026-04-20 15:41 | 35.08488 | 113.63290 | 10639 ft | 320 kts | 160° |
| 2026-04-20 15:42 | 35.06429 | 113.64194 | 10520 ft | 310 kts | 160° |
| 2026-04-20 15:42 | 35.04429 | 113.65068 | 10398 ft | 301 kts | 160° |
| 2026-04-20 15:42 | 35.02480 | 113.65915 | 10278 ft | 292 kts | 160° |
| 2026-04-20 15:42 | 35.00582 | 113.66736 | 10099 ft | 287 kts | 160° |
| 2026-04-20 15:43 | 34.98712 | 113.67549 | 9830 ft | 285 kts | 160° |
| 2026-04-20 15:43 | 34.96851 | 113.68357 | 9521 ft | 283 kts | 160° |
| 2026-04-20 15:43 | 34.95000 | 113.69157 | 9220 ft | 282 kts | 160° |
| 2026-04-20 15:43 | 34.93150 | 113.69958 | 8925 ft | 280 kts | 160° |
| 2026-04-20 15:44 | 34.91314 | 113.70751 | 8624 ft | 279 kts | 160° |
| 2026-04-20 15:44 | 34.89448 | 113.71364 | 8326 ft | 279 kts | 171° |
| 2026-04-20 15:44 | 34.87507 | 113.71385 | 8036 ft | 279 kts | 186° |
| 2026-04-20 15:44 | 34.86250 | 113.71065 | 7833 ft | 280 kts | 196° |
| 2026-04-20 15:45 | 34.84472 | 113.70085 | 7539 ft | 281 kts | 211° |
| 2026-04-20 15:45 | 34.82514 | 113.67970 | 7136 ft | 283 kts | 226° |
| 2026-04-20 15:45 | 34.81639 | 113.66807 | 6936 ft | 283 kts | 226° |
| 2026-04-20 15:45 | 34.80304 | 113.65045 | 6641 ft | 282 kts | 226° |
| 2026-04-20 15:46 | 34.78975 | 113.63297 | 6418 ft | 279 kts | 226° |
| 2026-04-20 15:46 | 34.77675 | 113.61588 | 6281 ft | 272 kts | 225° |
| 2026-04-20 15:46 | 34.76407 | 113.59922 | 6150 ft | 265 kts | 225° |
| 2026-04-20 15:46 | 34.75173 | 113.58300 | 6018 ft | 258 kts | 225° |
| 2026-04-20 15:47 | 34.73967 | 113.56715 | 5826 ft | 254 kts | 225° |
| 2026-04-20 15:47 | 34.72701 | 113.55259 | 5628 ft | 247 kts | 213° |
| 2026-04-20 15:47 | 34.71218 | 113.54286 | 5466 ft | 237 kts | 199° |
| 2026-04-20 15:47 | 34.69710 | 113.53558 | 5340 ft | 229 kts | 200° |
| 2026-04-20 15:48 | 34.68258 | 113.52849 | 5216 ft | 221 kts | 199° |
| 2026-04-20 15:48 | 34.66848 | 113.52194 | 5088 ft | 213 kts | 192° |
| 2026-04-20 15:48 | 34.65405 | 113.52006 | 4966 ft | 207 kts | 173° |
| 2026-04-20 15:48 | 34.64034 | 113.52385 | 4842 ft | 203 kts | 154° |
| 2026-04-20 15:49 | 34.62843 | 113.53273 | 4701 ft | 201 kts | 136° |
| 2026-04-20 15:49 | 34.61963 | 113.54567 | 4584 ft | 199 kts | 117° |
| 2026-04-20 15:49 | 34.61405 | 113.56102 | 4458 ft | 198 kts | 111° |
| 2026-04-20 15:49 | 34.60885 | 113.57652 | 4336 ft | 197 kts | 111° |
| 2026-04-20 15:50 | 34.60380 | 113.59154 | 4233 ft | 186 kts | 111° |
| 2026-04-20 15:50 | 34.59904 | 113.60564 | 4095 ft | 176 kts | 111° |
| 2026-04-20 15:50 | 34.59457 | 113.61891 | 4010 ft | 164 kts | 111° |
| 2026-04-20 15:50 | 34.59036 | 113.63139 | 3856 ft | 158 kts | 111° |
| 2026-04-20 15:51 | 34.58624 | 113.64361 | 3673 ft | 154 kts | 111° |
| 2026-04-20 15:51 | 34.58219 | 113.65561 | 3479 ft | 153 kts | 111° |
| 2026-04-20 15:51 | 34.57817 | 113.66751 | 3269 ft | 152 kts | 112° |
| 2026-04-20 15:51 | 34.57416 | 113.67937 | 3078 ft | 152 kts | 112° |
| 2026-04-20 15:52 | 34.57017 | 113.69119 | 2869 ft | 151 kts | 113° |
| 2026-04-20 15:52 | 34.56622 | 113.70288 | 2701 ft | 146 kts | 113° |
| 2026-04-20 15:52 | 34.56239 | 113.71421 | 2481 ft | 144 kts | 113° |
| 2026-04-20 15:53 | 34.55484 | 113.73649 | 2095 ft | 142 kts | 114° |
| 2026-04-20 15:53 | 34.55110 | 113.74754 | 1903 ft | 141 kts | 114° |
| 2026-04-20 15:53 | 34.54739 | 113.75858 | 1722 ft | 141 kts | 113° |
| 2026-04-20 15:53 | 34.54367 | 113.76955 | 1510 ft | 140 kts | 114° |
| 2026-04-20 15:54 | 34.53994 | 113.78054 | 1313 ft | 141 kts | 113° |
| 2026-04-20 15:54 | 34.53620 | 113.79148 | 1112 ft | 140 kts | 113° |
| 2026-04-20 15:54 | 34.53248 | 113.80246 | 925 ft | 140 kts | 112° |
| 2026-04-20 15:54 | 34.52879 | 113.81340 | 733 ft | 141 kts | 112° |
| 2026-04-20 15:55 | 34.52508 | 113.82436 | 550 ft | 141 kts | 112° |
| 2026-04-20 15:55 | 34.52167 | 113.83447 | 502 ft | 108 kts | 112° |
| 2026-04-20 15:55 | 34.51946 | 113.84098 | 500 ft | 58 kts | 112° |
| 2026-04-20 15:55 | 34.51808 | 113.84491 | 500 ft | 47 kts | 111° |
| 2026-04-20 15:56 | 34.51785 | 113.84789 | 502 ft | 27 kts | 84° |
| 2026-04-20 15:56 | 34.51799 | 113.84899 | 504 ft | 9 kts | 65° |
| 2026-04-20 15:56 | 34.51825 | 113.84922 | 504 ft | 4 kts | 26° |
| 2026-04-20 15:56 | 34.51857 | 113.84938 | 504 ft | 6 kts | 22° |
| 2026-04-20 15:57 | 34.51898 | 113.84959 | 505 ft | 8 kts | 22° |
| 2026-04-20 15:57 | 34.51939 | 113.84980 | 505 ft | 5 kts | 23° |
| 2026-04-20 15:57 | 34.51978 | 113.85000 | 505 ft | 7 kts | 22° |
| 2026-04-20 15:57 | 34.52023 | 113.85022 | 505 ft | 7 kts | 22° |
| 2026-04-20 15:58 | 34.52070 | 113.85044 | 505 ft | 3 kts | 21° |
| 2026-04-20 15:58 | 34.52094 | 113.85051 | 505 ft | 4 kts | 351° |
| 2026-04-20 15:58 | 34.52110 | 113.85019 | 505 ft | 5 kts | 291° |
| 2026-04-20 15:58 | 34.52119 | 113.84992 | 505 ft | 2 kts | 292° |
| 2026-04-20 15:59 | 34.52126 | 113.84972 | 505 ft | 2 kts | 292° |
| 2026-04-20 15:59 | 34.52126 | 113.84971 | 505 ft | 0 kts | 292° |